createdAt,value
2019-05-13T00:01:28.429Z,0.90
2019-05-13T00:03:56.089Z,0.90
2019-05-13T00:06:23.888Z,1.10
2019-05-13T00:08:54.165Z,1.07
2019-05-13T00:11:20.971Z,1.00
2019-05-13T00:13:48.644Z,1.30
2019-05-13T00:16:16.305Z,1.00
2019-05-13T00:18:44.406Z,0.90
2019-05-13T00:21:14.025Z,1.17
2019-05-13T00:23:44.065Z,1.30
2019-05-13T00:26:11.095Z,0.93
2019-05-13T00:28:38.835Z,1.17
2019-05-13T00:31:06.492Z,1.10
2019-05-13T00:33:34.151Z,1.40
2019-05-13T00:36:03.887Z,1.63
2019-05-13T00:38:33.473Z,1.07
2019-05-13T00:41:00.560Z,1.20
2019-05-13T00:43:28.220Z,2.07
2019-05-13T00:45:55.887Z,1.07
2019-05-13T00:48:23.550Z,1.03
2019-05-13T00:50:51.221Z,1.50
2019-05-13T00:53:18.884Z,1.07
2019-05-13T00:55:46.565Z,1.10
2019-05-13T00:58:14.336Z,1.13
2019-05-13T01:00:44.208Z,1.10
2019-05-13T01:03:13.898Z,1.10
2019-05-13T01:05:40.791Z,1.33
2019-05-13T01:08:08.453Z,1.37
2019-05-13T01:10:36.109Z,1.20
2019-05-13T01:13:04.604Z,1.23
2019-05-13T01:15:34.556Z,1.37
2019-05-13T01:18:03.967Z,1.03
2019-05-13T01:20:33.746Z,1.27
2019-05-13T01:23:03.005Z,1.27
2019-05-13T01:25:30.241Z,1.47
2019-05-13T01:27:57.916Z,1.57
2019-05-13T01:30:25.594Z,1.70
2019-05-13T01:32:54.049Z,1.50
2019-05-13T01:35:23.633Z,1.10
2019-05-13T01:37:53.686Z,1.43
2019-05-13T01:40:20.531Z,1.30
2019-05-13T01:42:48.313Z,1.00
2019-05-13T01:45:15.972Z,1.43
2019-05-13T01:47:44.239Z,1.20
2019-05-13T01:50:14.040Z,1.47
2019-05-13T01:52:41.333Z,1.40
2019-05-13T01:55:08.993Z,1.50
2019-05-13T01:57:36.648Z,1.70
2019-05-13T02:00:04.775Z,1.43
2019-05-13T02:02:33.652Z,1.60
2019-05-13T02:05:03.748Z,1.50
2019-05-13T02:07:30.933Z,1.27
2019-05-13T02:09:59.575Z,1.57
2019-05-13T02:12:27.239Z,1.50
2019-05-13T02:14:54.931Z,1.60
2019-05-13T02:17:23.414Z,1.63
2019-05-13T02:19:51.328Z,1.13
2019-05-13T02:22:18.994Z,1.20
2019-05-13T02:24:46.640Z,1.53
2019-05-13T02:27:14.583Z,1.90
2019-05-13T02:29:43.660Z,1.43
2019-05-13T02:32:13.747Z,2.07
2019-05-13T02:34:43.731Z,1.70
2019-05-13T02:37:12.862Z,1.23
2019-05-13T02:39:42.557Z,1.57
2019-05-13T02:42:08.952Z,1.27
2019-05-13T02:44:36.614Z,1.80
2019-05-13T02:47:04.273Z,1.83
2019-05-13T02:49:32.654Z,1.60
2019-05-13T02:52:02.732Z,1.80
2019-05-13T02:54:33.700Z,1.50
2019-05-13T02:56:59.309Z,1.73
2019-05-13T02:59:26.963Z,1.50
2019-05-13T03:01:54.641Z,2.00
2019-05-13T03:04:23.356Z,1.83
2019-05-13T03:06:52.146Z,1.70
2019-05-13T03:09:22.724Z,1.53
2019-05-13T03:11:53.223Z,2.10
2019-05-13T03:14:18.639Z,1.53
2019-05-13T03:16:52.810Z,2.03
2019-05-13T03:19:22.396Z,1.80
2019-05-13T03:21:52.452Z,1.50
2019-05-13T03:24:22.425Z,1.67
2019-05-13T03:26:48.744Z,1.70
2019-05-13T03:29:16.408Z,1.80
2019-05-13T03:31:46.486Z,1.70
2019-05-13T03:34:15.642Z,1.87
2019-05-13T03:36:46.084Z,2.33
2019-05-13T03:39:16.116Z,2.20
2019-05-13T03:41:42.297Z,1.80
2019-05-13T03:44:13.597Z,1.80
2019-05-13T03:46:42.368Z,1.87
2019-05-13T03:49:08.969Z,2.10
2019-05-13T03:51:36.663Z,1.70
2019-05-13T03:54:04.326Z,1.70
2019-05-13T03:56:32.918Z,1.90
2019-05-13T03:59:02.737Z,1.83
2019-05-13T04:01:32.565Z,2.07
2019-05-13T04:04:03.038Z,1.90
2019-05-13T04:06:32.077Z,2.17
2019-05-13T04:09:17.374Z,1.77
2019-05-13T04:11:27.724Z,1.97
2019-05-13T04:13:55.476Z,1.60
2019-05-13T04:16:23.914Z,2.00
2019-05-13T04:18:53.677Z,1.90
2019-05-13T04:21:22.830Z,2.37
2019-05-13T04:23:53.004Z,1.97
2019-05-13T04:26:23.164Z,1.90
2019-05-13T04:28:52.426Z,1.80
2019-05-13T04:31:18.654Z,1.73
2019-05-13T04:33:46.384Z,1.83
2019-05-13T04:36:14.119Z,1.37
2019-05-13T04:38:44.267Z,2.10
2019-05-13T04:41:12.184Z,1.87
2019-05-13T04:43:42.924Z,1.90
2019-05-13T04:46:09.477Z,1.70
2019-05-13T04:48:40.511Z,1.93
2019-05-13T04:51:06.548Z,1.80
2019-05-13T04:53:34.252Z,2.20
2019-05-13T04:56:03.078Z,1.33
2019-05-13T04:58:32.251Z,1.93
2019-05-13T05:01:04.688Z,1.73
2019-05-13T05:03:35.153Z,1.90
2019-05-13T05:05:59.015Z,1.90
2019-05-13T05:08:26.685Z,2.13
2019-05-13T05:10:54.449Z,1.93
2019-05-13T05:13:22.287Z,2.00
2019-05-13T05:15:52.287Z,2.50
2019-05-13T05:18:21.987Z,2.30
2019-05-13T05:20:48.811Z,2.20
2019-05-13T05:23:16.474Z,2.13
2019-05-13T05:25:44.135Z,2.13
2019-05-13T05:28:11.800Z,1.80
2019-05-13T05:30:41.185Z,1.83
2019-05-13T05:33:11.235Z,1.87
2019-05-13T05:35:38.389Z,2.23
2019-05-13T05:38:06.163Z,2.20
2019-05-13T05:40:34.727Z,1.83
2019-05-13T05:43:02.745Z,2.10
2019-05-13T05:45:31.883Z,1.97
2019-05-13T05:48:01.561Z,2.10
2019-05-13T05:50:31.804Z,2.47
2019-05-13T05:52:58.373Z,2.10
2019-05-13T05:55:26.033Z,1.70
2019-05-13T05:57:53.714Z,2.20
2019-05-13T06:00:22.056Z,2.50
2019-05-13T06:02:52.987Z,2.57
2019-05-13T06:05:21.243Z,2.10
2019-05-13T06:07:48.561Z,2.03
2019-05-13T06:10:16.240Z,2.53
2019-05-13T06:12:43.905Z,1.80
2019-05-13T06:15:12.368Z,1.90
2019-05-13T06:17:41.299Z,1.57
2019-05-13T06:20:09.290Z,1.97
2019-05-13T06:22:36.956Z,2.20
2019-05-13T06:25:04.645Z,1.43
2019-05-13T06:27:32.312Z,2.30
2019-05-13T06:30:02.293Z,1.47
2019-05-13T06:32:31.438Z,2.20
2019-05-13T06:35:01.320Z,1.80
2019-05-13T06:37:28.067Z,1.73
2019-05-13T06:39:55.729Z,1.83
2019-05-13T06:42:23.392Z,1.90
2019-05-13T06:44:51.486Z,1.63
2019-05-13T06:47:21.753Z,1.53
2019-05-13T06:49:48.682Z,2.63
2019-05-13T06:52:16.336Z,1.87
2019-05-13T06:54:44.028Z,2.07
2019-05-13T06:57:13.413Z,1.50
2019-05-13T06:59:41.997Z,2.00
2019-05-13T07:02:12.221Z,1.63
2019-05-13T07:04:41.431Z,1.77
2019-05-13T07:07:13.071Z,2.17
2019-05-13T07:09:37.939Z,2.03
2019-05-13T07:12:05.607Z,1.77
2019-05-13T07:14:33.277Z,1.87
2019-05-13T07:17:02.017Z,1.73
2019-05-13T07:19:32.384Z,1.63
2019-05-13T07:22:02.356Z,1.93
2019-05-13T07:24:28.839Z,1.80
2019-05-13T07:26:56.502Z,1.57
2019-05-13T07:29:24.368Z,2.20
2019-05-13T07:31:52.382Z,2.17
2019-05-13T07:34:24.094Z,2.03
2019-05-13T07:36:51.282Z,2.07
2019-05-13T07:39:18.955Z,1.90
2019-05-13T07:41:46.613Z,2.00
2019-05-13T07:44:14.275Z,2.43
2019-05-13T07:46:42.685Z,2.13
2019-05-13T07:49:12.014Z,2.17
2019-05-13T07:51:42.087Z,2.10
2019-05-13T07:54:11.245Z,2.33
2019-05-13T07:56:38.567Z,2.80
2019-05-13T07:59:06.232Z,2.00
2019-05-13T08:01:33.999Z,2.13
2019-05-13T08:04:02.290Z,2.30
2019-05-13T08:06:32.380Z,2.10
2019-05-13T08:09:01.693Z,1.97
2019-05-13T08:11:34.951Z,2.03
2019-05-13T08:13:58.249Z,1.80
2019-05-13T08:16:25.899Z,1.90
2019-05-13T08:18:53.567Z,1.83
2019-05-13T08:21:21.598Z,1.90
2019-05-13T08:23:49.413Z,2.57
2019-05-13T08:26:17.182Z,2.37
2019-05-13T08:28:57.009Z,2.10
2019-05-13T08:31:14.210Z,2.30
2019-05-13T08:33:42.490Z,2.40
2019-05-13T08:36:12.283Z,2.20
2019-05-13T08:38:42.958Z,2.27
2019-05-13T08:41:09.831Z,2.20
2019-05-13T08:43:38.456Z,2.30
2019-05-13T08:46:06.127Z,2.40
2019-05-13T08:48:33.795Z,1.97
2019-05-13T08:51:03.051Z,1.93
2019-05-13T08:53:31.734Z,2.03
2019-05-13T08:56:01.463Z,1.83
2019-05-13T08:58:28.905Z,2.03
2019-05-13T09:00:58.968Z,2.40
2019-05-13T09:03:25.962Z,2.40
2019-05-13T09:05:53.624Z,2.20
2019-05-13T09:08:22.375Z,1.97
2019-05-13T09:10:52.094Z,2.10
2019-05-13T09:13:19.604Z,2.10
2019-05-13T09:15:47.272Z,2.10
2019-05-13T09:18:14.974Z,1.90
2019-05-13T09:20:42.629Z,2.13
2019-05-13T09:23:11.425Z,1.80
2019-05-13T09:25:41.518Z,1.47
2019-05-13T09:28:08.805Z,1.90
2019-05-13T09:30:36.464Z,1.70
2019-05-13T09:33:04.195Z,1.53
2019-05-13T09:35:31.865Z,1.30
2019-05-13T09:38:03.034Z,1.73
2019-05-13T09:40:31.316Z,1.70
2019-05-13T09:42:58.445Z,1.40
2019-05-13T09:45:26.146Z,1.43
2019-05-13T09:47:53.800Z,1.10
2019-05-13T09:50:29.414Z,1.37
2019-05-13T09:52:51.742Z,1.13
2019-05-13T09:55:26.370Z,1.60
2019-05-13T09:57:49.056Z,1.47
2019-05-13T10:00:16.739Z,1.37
2019-05-13T10:02:44.403Z,1.37
2019-05-13T10:05:12.074Z,1.00
2019-05-13T10:07:42.381Z,1.67
2019-05-13T10:10:11.689Z,0.97
2019-05-13T10:12:38.655Z,1.30
2019-05-13T10:15:06.444Z,1.10
2019-05-13T10:17:34.113Z,1.63
2019-05-13T10:20:01.772Z,1.53
2019-05-13T10:22:31.749Z,1.40
2019-05-13T10:24:58.807Z,1.60
2019-05-13T10:27:26.473Z,1.43
2019-05-13T10:29:54.571Z,1.83
2019-05-13T10:32:22.385Z,1.70
2019-05-13T10:34:52.077Z,1.70
2019-05-13T10:37:21.904Z,1.10
2019-05-13T10:39:48.783Z,1.43
2019-05-13T10:42:16.463Z,1.20
2019-05-13T10:44:44.134Z,1.43
2019-05-13T10:47:12.239Z,1.63
2019-05-13T10:49:42.483Z,1.40
2019-05-13T10:52:11.768Z,1.37
2019-05-13T10:54:38.790Z,1.60
2019-05-13T10:57:06.458Z,1.40
2019-05-13T10:59:34.264Z,1.27
2019-05-13T11:02:02.531Z,1.43
2019-05-13T11:04:32.669Z,1.67
2019-05-13T11:07:02.383Z,1.50
2019-05-13T11:09:31.961Z,2.30
2019-05-13T11:12:01.857Z,1.30
2019-05-13T11:14:28.279Z,1.20
2019-05-13T11:16:55.936Z,1.40
2019-05-13T11:19:23.884Z,1.50
2019-05-13T11:21:51.554Z,1.00
2019-05-13T11:24:19.215Z,1.30
2019-05-13T11:26:46.885Z,1.30
2019-05-13T11:29:14.548Z,1.50
2019-05-13T11:31:42.918Z,1.50
2019-05-13T11:34:11.248Z,1.67
2019-05-13T11:36:42.694Z,1.33
2019-05-13T11:39:12.698Z,1.10
2019-05-13T11:41:38.756Z,1.73
2019-05-13T11:44:14.197Z,1.10
2019-05-13T11:46:35.820Z,1.30
2019-05-13T11:49:03.483Z,1.60
2019-05-13T11:51:32.011Z,1.30
2019-05-13T11:54:02.389Z,1.93
2019-05-13T11:56:33.430Z,1.57
2019-05-13T11:58:59.005Z,1.40
2019-05-13T12:01:26.684Z,1.30
2019-05-13T12:03:54.610Z,1.10
2019-05-13T12:08:54.984Z,0.97
2019-05-13T12:11:22.327Z,1.10
2019-05-13T12:13:52.836Z,1.07
2019-05-13T12:16:22.449Z,1.30
2019-05-13T12:18:52.469Z,1.00
2019-05-13T12:21:18.760Z,0.90
2019-05-13T12:23:46.433Z,1.10
2019-05-13T12:26:14.400Z,1.10
2019-05-13T12:28:42.250Z,1.23
2019-05-13T12:31:12.183Z,1.10
2019-05-13T12:33:43.809Z,1.50
2019-05-13T12:36:15.376Z,1.10
2019-05-13T12:38:38.373Z,1.47
2019-05-13T12:41:06.598Z,1.33
2019-05-13T12:43:34.548Z,1.80
2019-05-13T12:46:02.659Z,1.53
2019-05-13T12:48:30.470Z,1.40
2019-05-13T12:50:58.139Z,1.33
2019-05-13T12:53:25.807Z,1.30
2019-05-13T12:55:56.673Z,1.10
2019-05-13T12:58:23.848Z,1.10
2019-05-13T13:00:53.375Z,1.53
2019-05-13T13:03:23.132Z,1.67
2019-05-13T13:05:50.730Z,1.63
2019-05-13T13:08:38.538Z,1.53
2019-05-13T13:10:47.823Z,1.17
2019-05-13T13:13:15.999Z,1.23
2019-05-13T13:15:48.583Z,1.20
2019-05-13T13:18:14.284Z,1.20
2019-05-13T13:20:42.584Z,1.40
2019-05-13T13:23:12.588Z,1.10
2019-05-13T13:25:42.466Z,1.20
2019-05-13T13:28:12.099Z,1.47
2019-05-13T13:30:38.408Z,1.03
2019-05-13T13:33:06.064Z,1.13
2019-05-13T13:35:34.125Z,1.13
2019-05-13T13:38:04.242Z,1.33
2019-05-13T13:40:35.247Z,1.20
2019-05-13T13:43:05.342Z,1.50
2019-05-13T13:45:36.845Z,1.90
2019-05-13T13:48:03.935Z,1.40
2019-05-13T13:50:33.272Z,1.30
2019-05-13T13:52:59.101Z,0.90
2019-05-13T13:55:26.778Z,1.13
2019-05-13T14:00:38.106Z,1.20
2019-05-13T14:02:54.511Z,1.50
2019-05-13T14:05:24.706Z,1.23
2019-05-13T14:07:04.399Z,0.90
2019-05-13T14:07:13.511Z,1.60
2019-05-13T14:07:52.255Z,1.30
2019-05-13T14:10:22.010Z,1.23
2019-05-13T14:12:49.397Z,1.57
2019-05-13T14:15:17.072Z,1.30
2019-05-13T14:17:44.729Z,1.20
2019-05-13T14:20:12.685Z,1.37
2019-05-13T14:22:41.896Z,1.00
2019-05-13T14:25:11.539Z,1.40
2019-05-13T14:27:41.881Z,1.20
2019-05-13T14:30:08.743Z,1.27
2019-05-13T14:32:36.416Z,1.27
2019-05-13T14:35:04.077Z,1.30
2019-05-13T14:37:31.923Z,1.30
2019-05-13T14:40:01.959Z,1.30
2019-05-13T14:42:32.007Z,1.40
2019-05-13T14:44:58.632Z,0.93
2019-05-13T14:47:26.352Z,0.97
2019-05-13T14:49:54.063Z,1.27
2019-05-13T14:52:22.363Z,1.30
2019-05-13T14:54:51.397Z,1.10
2019-05-13T14:57:21.541Z,1.10
2019-05-13T14:59:51.224Z,1.30
2019-05-13T15:02:18.049Z,0.97
2019-05-13T15:04:45.720Z,1.00
2019-05-13T15:07:13.773Z,1.20
2019-05-13T15:09:42.120Z,1.00
2019-05-13T15:12:09.996Z,0.60
2019-05-13T15:14:40.004Z,1.00
2019-05-13T15:17:07.831Z,1.40
2019-05-13T15:19:35.631Z,0.73
2019-05-13T15:22:03.647Z,1.10
2019-05-13T15:24:32.431Z,1.23
2019-05-13T15:27:00.267Z,1.10
2019-05-13T15:29:27.931Z,1.37
2019-05-13T15:31:55.591Z,1.00
2019-05-13T15:34:23.264Z,0.93
2019-05-13T15:36:51.507Z,0.93
2019-05-13T15:39:19.552Z,0.73
2019-05-13T15:41:47.216Z,1.23
2019-05-13T15:44:14.909Z,1.20
2019-05-13T15:46:42.703Z,1.13
2019-05-13T15:49:12.375Z,0.90
2019-05-13T15:51:42.038Z,0.90
2019-05-13T15:54:09.159Z,0.93
2019-05-13T15:56:36.820Z,1.40
2019-05-13T15:59:04.528Z,1.00
2019-05-13T16:01:32.244Z,0.83
2019-05-13T16:04:02.540Z,1.17
2019-05-13T16:06:32.032Z,1.13
2019-05-13T16:08:58.797Z,1.03
2019-05-13T16:11:26.757Z,1.10
2019-05-13T16:13:54.422Z,1.03
2019-05-13T16:16:22.327Z,1.27
2019-05-13T16:18:51.465Z,1.23
2019-05-13T16:21:19.480Z,1.07
2019-05-13T16:23:47.165Z,1.10
2019-05-13T16:26:14.823Z,0.90
2019-05-13T16:28:42.491Z,1.17
2019-05-13T16:31:11.990Z,1.37
2019-05-13T16:33:41.567Z,1.33
2019-05-13T16:36:08.953Z,0.87
2019-05-13T16:38:36.614Z,1.10
2019-05-13T16:41:04.294Z,0.87
2019-05-13T16:43:32.268Z,1.17
2019-05-13T16:45:59.952Z,1.43
2019-05-13T16:48:27.877Z,1.20
2019-05-13T16:50:55.542Z,1.37
2019-05-13T16:53:25.779Z,1.10
2019-05-13T16:55:52.564Z,1.20
2019-05-13T16:58:24.485Z,1.03
2019-05-13T17:00:52.102Z,1.27
2019-05-13T17:03:21.087Z,1.07
2019-05-13T17:05:48.452Z,1.10
2019-05-13T17:08:16.644Z,1.33
2019-05-13T17:10:44.294Z,1.60
2019-05-13T17:13:11.956Z,1.20
2019-05-13T17:15:41.531Z,1.47
2019-05-13T17:18:12.095Z,1.30
2019-05-13T17:20:38.348Z,1.43
2019-05-13T17:23:06.022Z,1.20
2019-05-13T17:25:33.821Z,1.23
2019-05-13T17:28:02.846Z,1.17
2019-05-13T17:30:31.978Z,1.20
2019-05-13T17:33:02.095Z,1.40
2019-05-13T17:35:31.183Z,1.57
2019-05-13T17:37:58.638Z,1.40
2019-05-13T17:40:26.307Z,1.50
2019-05-13T17:42:53.991Z,1.10
2019-05-13T17:45:22.033Z,1.50
2019-05-13T17:47:51.870Z,1.50
2019-05-13T17:50:19.180Z,1.20
2019-05-13T17:52:46.845Z,1.37
2019-05-13T17:55:14.508Z,1.70
2019-05-13T17:57:42.237Z,1.00
2019-05-13T18:00:09.986Z,1.03
2019-05-13T18:02:37.647Z,1.43
2019-05-13T18:05:05.394Z,1.40
2019-05-13T18:07:33.114Z,1.10
2019-05-13T18:10:01.472Z,1.20
2019-05-13T18:12:29.456Z,1.50
2019-05-13T18:14:57.118Z,1.50
2019-05-13T18:17:24.775Z,1.20
2019-05-13T18:19:52.444Z,1.47
2019-05-13T18:22:20.109Z,1.27
2019-05-13T18:24:47.771Z,1.17
2019-05-13T18:27:15.436Z,1.37
2019-05-13T18:29:43.332Z,1.80
2019-05-13T18:32:12.404Z,1.57
2019-05-13T18:34:40.303Z,1.40
2019-05-13T18:37:07.964Z,1.57
2019-05-13T18:39:35.678Z,1.10
2019-05-13T18:42:03.433Z,1.50
2019-05-13T18:44:31.701Z,1.83
2019-05-13T18:47:01.499Z,1.70
2019-05-13T18:49:28.919Z,1.50
2019-05-13T18:51:56.587Z,2.07
2019-05-13T18:54:24.266Z,1.60
2019-05-13T18:56:52.275Z,2.07
2019-05-13T18:59:21.411Z,1.97
2019-05-13T19:01:49.288Z,1.80
2019-05-13T19:04:16.963Z,1.60
2019-05-13T19:06:44.629Z,1.67
2019-05-13T19:09:12.287Z,1.60
2019-05-13T19:11:42.427Z,1.50
2019-05-13T19:14:12.060Z,1.40
2019-05-13T19:16:38.704Z,1.80
2019-05-13T19:19:13.236Z,1.60
2019-05-13T19:21:35.731Z,1.80
2019-05-13T19:24:03.461Z,1.73
2019-05-13T19:26:31.100Z,1.77
2019-05-13T19:28:58.768Z,2.23
2019-05-13T19:31:26.428Z,1.70
2019-05-13T19:33:54.091Z,1.80
2019-05-13T19:36:21.763Z,1.53
2019-05-13T19:38:51.285Z,1.50
2019-05-13T19:41:19.157Z,2.20
2019-05-13T19:43:46.976Z,1.80
2019-05-13T19:46:14.640Z,1.57
2019-05-13T19:48:42.296Z,1.80
2019-05-13T19:51:09.960Z,1.67
2019-05-13T19:53:37.608Z,2.03
2019-05-13T19:56:05.282Z,1.70
2019-05-13T19:58:32.939Z,2.00
2019-05-13T20:01:00.596Z,1.60
2019-05-13T20:03:28.251Z,1.73
2019-05-13T20:05:55.946Z,1.60
2019-05-13T20:08:23.640Z,1.77
2019-05-13T20:10:51.556Z,1.70
2019-05-13T20:13:21.652Z,1.77
2019-05-13T20:15:48.724Z,2.17
2019-05-13T20:18:16.447Z,1.90
2019-05-13T20:20:44.119Z,1.97
2019-05-13T20:23:12.155Z,2.10
2019-05-13T20:25:41.730Z,2.13
2019-05-13T20:28:11.424Z,2.23
2019-05-13T20:30:38.916Z,2.30
2019-05-13T20:33:06.581Z,1.93
2019-05-13T20:35:34.231Z,2.00
2019-05-13T20:38:02.298Z,2.20
2019-05-13T20:40:32.134Z,1.90
2019-05-13T20:43:01.803Z,2.20
2019-05-13T20:45:31.105Z,2.23
2019-05-13T20:47:58.368Z,1.90
2019-05-13T20:50:26.091Z,1.90
2019-05-13T20:52:53.752Z,2.40
2019-05-13T20:55:22.089Z,2.30
2019-05-13T20:57:52.814Z,2.00
2019-05-13T21:00:19.363Z,1.93
2019-05-13T21:02:47.018Z,1.90
2019-05-13T21:05:14.688Z,1.97
2019-05-13T21:07:42.343Z,1.53
2019-05-13T21:10:11.938Z,1.67
2019-05-13T21:12:41.783Z,1.93
2019-05-13T21:15:08.777Z,2.30
2019-05-13T21:17:36.504Z,1.93
2019-05-13T21:20:18.200Z,1.57
2019-05-13T21:22:33.534Z,2.00
2019-05-13T21:25:02.119Z,1.70
2019-05-13T21:27:31.508Z,2.17
2019-05-13T21:30:01.153Z,1.70
2019-05-13T21:32:28.683Z,2.00
2019-05-13T21:34:56.336Z,1.90
2019-05-13T21:37:24.000Z,1.50
2019-05-13T21:39:51.774Z,1.50
2019-05-13T21:42:21.475Z,1.33
2019-05-13T21:44:51.131Z,1.57
2019-05-13T21:47:18.268Z,1.90
2019-05-13T21:49:45.928Z,1.40
2019-05-13T21:52:13.867Z,1.40
2019-05-13T21:54:42.204Z,1.93
2019-05-13T21:57:11.462Z,1.60
2019-05-13T21:59:41.269Z,1.60
2019-05-13T22:02:08.599Z,1.60
2019-05-13T22:04:36.267Z,1.33
2019-05-13T22:07:03.946Z,1.60
2019-05-13T22:09:32.016Z,1.40
2019-05-13T22:12:01.841Z,1.40
2019-05-13T22:14:31.766Z,1.20
2019-05-13T22:16:58.598Z,1.40
2019-05-13T22:19:26.297Z,1.30
2019-05-13T22:21:53.969Z,1.20
2019-05-13T22:24:22.056Z,1.30
2019-05-13T22:26:51.185Z,1.23
2019-05-13T22:29:22.967Z,1.20
2019-05-13T22:31:48.401Z,1.40
2019-05-13T22:34:16.061Z,1.30
2019-05-13T22:36:43.796Z,1.50
2019-05-13T22:39:11.637Z,1.43
2019-05-13T22:41:41.892Z,1.60
2019-05-13T22:44:11.436Z,1.47
2019-05-13T22:46:38.199Z,1.63
2019-05-13T22:49:05.993Z,1.87
2019-05-13T22:51:33.697Z,1.70
2019-05-13T22:54:01.448Z,1.60
2019-05-13T22:56:29.129Z,2.17
2019-05-13T22:58:56.855Z,1.87
2019-05-13T23:01:24.528Z,1.93
2019-05-13T23:03:52.262Z,1.83
2019-05-13T23:06:21.613Z,1.53
2019-05-13T23:08:49.464Z,1.90
2019-05-13T23:11:17.132Z,2.00
2019-05-13T23:13:44.830Z,1.70
2019-05-13T23:16:12.547Z,1.90
2019-05-13T23:18:42.088Z,1.80
2019-05-13T23:21:11.474Z,2.23
2019-05-13T23:23:39.012Z,1.63
2019-05-13T23:26:06.684Z,2.00
2019-05-13T23:28:34.348Z,1.80
2019-05-13T23:31:02.012Z,1.90
2019-05-13T23:33:31.357Z,2.07
2019-05-13T23:36:01.359Z,2.17
2019-05-13T23:38:28.584Z,2.00
2019-05-13T23:40:56.301Z,1.77
2019-05-13T23:43:23.956Z,2.30
2019-05-13T23:45:51.623Z,1.90
2019-05-13T23:48:21.399Z,2.17
2019-05-13T23:50:48.652Z,2.43
2019-05-13T23:53:16.312Z,1.53
2019-05-13T23:55:43.956Z,2.23
2019-05-13T23:58:12.232Z,1.90
